Time;durP1;ratioP1;P1;durP2;ratioP2;P2;SDS_P1;SDS_P2;PMS_P1;PMS_P2;Temp;Humidity;BMP_temperature;BMP_pressure;BME280_temperature;BME280_humidity;BME280_pressure;Samples;Min_cycle;Max_cycle;Signal;HPM_P1;HPM_P2
2021/05/11 07:32:24;;;;;;;8.73;1.63;;;12.30;99.90;;;;;;6101419;22;913513;-87
2021/05/11 07:34:54;;;;;;;10.70;1.65;;;12.50;99.90;;;;;;6186387;23;20371;-86
2021/05/11 07:37:21;;;;;;;7.18;1.90;;;12.40;99.90;;;;;;6188980;23;20021;-88
2021/05/11 07:39:49;;;;;;;9.32;1.55;;;12.50;99.90;;;;;;6194554;23;20084;-86
2021/05/11 07:42:16;;;;;;;9.68;1.50;;;12.50;99.90;;;;;;6193244;23;20016;-87
2021/05/11 07:44:47;;;;;;;9.93;2.05;;;12.60;99.90;;;;;;6193546;23;20132;-87
2021/05/11 07:47:20;;;;;;;7.15;1.50;;;12.70;99.90;;;;;;6196660;23;20021;-87
2021/05/11 08:16:40;;;;;;;6.82;1.35;;;12.60;99.90;;;;;;6184538;23;20009;-85
2021/05/11 08:29:53;;;;;;;15.18;3.03;;;12.00;99.90;;;;;;6152016;23;20017;-85
2021/05/11 08:32:20;;;;;;;13.50;2.92;;;12.10;99.90;;;;;;6151914;23;20041;-85
2021/05/11 08:34:47;;;;;;;14.18;2.60;;;12.30;99.90;;;;;;6127837;23;20024;-85
2021/05/11 08:37:16;;;;;;;19.42;3.50;;;12.50;99.90;;;;;;6126644;23;20026;-83
2021/05/11 08:39:46;;;;;;;13.07;2.33;;;12.60;99.90;;;;;;6128035;23;20530;-85
2021/05/11 08:42:13;;;;;;;12.98;2.33;;;12.70;99.90;;;;;;6127299;23;20574;-86
2021/05/11 08:44:40;;;;;;;9.15;2.13;;;12.80;99.90;;;;;;6152553;23;20037;-86
2021/05/11 08:47:07;;;;;;;6.30;1.20;;;12.90;99.90;;;;;;6127719;23;20353;-86
2021/05/11 08:49:34;;;;;;;12.50;1.95;;;12.90;99.90;;;;;;6128123;23;20036;-87
2021/05/11 08:55:12;;;;;;;10.77;1.63;;;12.70;99.90;;;;;;6152150;23;20397;-84
2021/05/11 09:25:54;;;;;;;9.27;1.53;;;11.50;99.90;;;;;;6092943;23;20018;-86
2021/05/11 09:31:32;;;;;;;10.27;1.80;;;11.60;99.90;;;;;;6091875;23;20019;-85
2021/05/11 09:34:30;;;;;;;15.57;2.38;;;11.60;99.90;;;;;;6092645;23;20049;-85
2021/05/11 10:49:43;;;;;;;24.80;3.53;;;13.40;99.90;;;;;;6183702;23;20286;-91
2021/05/11 10:52:36;;;;;;;19.20;4.00;;;13.60;99.90;;;;;;6183112;23;20535;-90
2021/05/11 10:55:11;;;;;;;28.77;4.05;;;13.70;99.90;;;;;;6180899;23;20070;-90
2021/05/11 10:57:57;;;;;;;18.75;3.35;;;13.70;99.90;;;;;;6182088;23;20017;-90
2021/05/11 11:03:15;;;;;;;15.93;3.22;;;13.90;99.90;;;;;;6183972;23;20009;-89
2021/05/11 11:05:45;;;;;;;19.02;3.85;;;14.00;99.90;;;;;;6182255;23;20334;-89
2021/05/11 11:08:34;;;;;;;15.65;3.28;;;14.10;99.90;;;;;;6181987;23;20389;-87
2021/05/11 11:11:16;;;;;;;16.17;3.47;;;14.10;99.90;;;;;;6182847;23;20745;-90
2021/05/11 11:13:53;;;;;;;19.55;2.97;;;14.10;99.90;;;;;;6181974;23;20023;-89
2021/05/11 11:16:40;;;;;;;24.30;4.50;;;14.00;99.90;;;;;;6182557;23;20391;-89
2021/05/11 11:19:08;;;;;;;13.63;2.90;;;14.00;99.90;;;;;;6181449;23;20032;-88
2021/05/11 11:24:27;;;;;;;14.07;3.30;;;14.10;99.90;;;;;;6184104;23;20032;-88
2021/05/11 11:26:56;;;;;;;21.48;3.72;;;14.00;99.90;;;;;;6183614;23;20052;-88
2021/05/11 11:29:24;;;;;;;18.38;3.28;;;14.10;99.90;;;;;;6183555;23;20095;-88
2021/05/11 11:31:52;;;;;;;17.87;3.57;;;14.10;99.90;;;;;;6181512;23;20471;-87
2021/05/11 11:34:32;;;;;;;19.92;3.70;;;14.30;99.90;;;;;;6181841;23;20636;-89
2021/05/11 11:37:10;;;;;;;23.65;3.50;;;14.40;99.90;;;;;;6180799;23;20036;-87
2021/05/11 11:39:47;;;;;;;16.67;3.40;;;14.30;99.90;;;;;;6180931;23;20492;-87
2021/05/11 11:42:29;;;;;;;16.25;3.40;;;14.30;99.90;;;;;;6180920;23;20032;-88
2021/05/11 11:44:59;;;;;;;19.48;3.17;;;14.30;99.90;;;;;;6181466;23;20063;-86
2021/05/11 11:47:27;;;;;;;21.33;3.45;;;14.30;99.90;;;;;;6180639;23;20025;-89
2021/05/11 11:50:04;;;;;;;29.10;4.07;;;14.30;99.90;;;;;;6183515;23;20456;-89
2021/05/11 12:00:20;;;;;;;21.95;4.85;;;14.30;99.90;;;;;;6182451;23;20024;-88
2021/05/11 12:03:01;;;;;;;23.08;4.03;;;14.40;99.90;;;;;;6181351;23;20025;-87
2021/05/11 12:05:32;;;;;;;20.73;4.28;;;14.60;99.90;;;;;;6180966;23;20024;-88
2021/05/11 12:08:24;;;;;;;16.35;3.65;;;14.50;99.90;;;;;;6181791;23;20083;-89
2021/05/11 12:10:55;;;;;;;23.10;3.45;;;14.50;99.90;;;;;;6173445;23;20040;-87
2021/05/11 12:13:24;;;;;;;15.32;3.63;;;14.20;99.90;;;;;;6180698;23;20071;-87
2021/05/11 12:16:07;;;;;;;15.43;3.55;;;14.20;99.90;;;;;;6180763;23;20071;-88
2021/05/11 12:18:35;;;;;;;24.33;4.10;;;14.10;99.90;;;;;;6182163;23;20393;-88
2021/05/11 12:21:06;;;;;;;23.75;4.47;;;14.10;99.90;;;;;;6181681;23;20033;-90
2021/05/11 12:23:34;;;;;;;21.23;4.22;;;14.00;99.90;;;;;;6181337;23;20021;-87
2021/05/11 12:26:07;;;;;;;22.65;3.97;;;13.90;99.90;;;;;;6181988;23;20021;-88
2021/05/11 12:28:38;;;;;;;24.13;4.45;;;13.90;99.90;;;;;;6184341;23;20064;-89
2021/05/11 12:31:10;;;;;;;28.45;5.15;;;14.00;99.90;;;;;;6177646;23;20029;-88
2021/05/11 12:33:38;;;;;;;30.75;5.22;;;14.10;99.90;;;;;;6182128;23;20349;-88
2021/05/11 12:36:23;;;;;;;24.67;5.65;;;14.20;99.90;;;;;;6181646;23;20881;-89
2021/05/11 12:38:52;;;;;;;30.08;4.88;;;14.40;99.90;;;;;;6181560;23;20025;-87
2021/05/11 12:41:33;;;;;;;25.63;5.00;;;14.50;99.90;;;;;;6182504;23;20021;-88
2021/05/11 12:44:04;;;;;;;24.95;4.65;;;14.70;99.90;;;;;;6186438;23;20013;-87
2021/05/11 12:46:36;;;;;;;28.02;4.68;;;14.80;99.90;;;;;;6183231;23;20491;-87
2021/05/11 12:49:11;;;;;;;30.88;4.97;;;14.80;99.90;;;;;;6183344;23;20396;-86
2021/05/11 12:51:44;;;;;;;25.00;4.90;;;14.70;99.90;;;;;;6182519;23;20048;-88
2021/05/11 12:54:28;;;;;;;21.23;4.88;;;14.70;99.90;;;;;;6183026;23;20021;-88
2021/05/11 13:14:56;;;;;;;20.85;4.07;;;14.90;99.90;;;;;;6149700;23;20040;-88
2021/05/11 13:17:38;;;;;;;27.83;4.45;;;15.10;99.90;;;;;;6148854;23;20029;-89
2021/05/11 13:22:40;;;;;;;16.88;4.40;;;15.10;99.90;;;;;;6148991;23;20017;-88
2021/05/11 13:33:47;;;;;;;25.65;5.25;;;15.10;99.90;;;;;;6119753;23;20088;-90
2021/05/11 13:36:14;;;;;;;28.67;5.35;;;15.20;99.90;;;;;;6096175;23;20098;-88
2021/05/11 13:38:41;;;;;;;21.98;4.82;;;15.20;99.90;;;;;;6096868;23;20060;-91
2021/05/11 13:41:08;;;;;;;26.00;4.82;;;15.20;99.90;;;;;;6095843;23;20022;-88
2021/05/11 13:43:34;;;;;;;25.27;5.05;;;15.20;99.90;;;;;;6120672;23;20381;-88
2021/05/11 13:46:02;;;;;;;21.50;5.30;;;15.10;99.90;;;;;;6095986;23;20013;-89
2021/05/11 13:48:37;;;;;;;27.52;4.70;;;15.00;99.90;;;;;;6095247;23;20026;-89
2021/05/11 13:51:11;;;;;;;29.83;5.40;;;14.80;99.90;;;;;;6094552;23;20588;-89
2021/05/11 13:53:40;;;;;;;25.02;5.28;;;14.90;99.90;;;;;;6095477;23;20018;-88
2021/05/11 14:01:54;;;;;;;31.88;6.35;;;14.70;99.90;;;;;;6120447;23;20038;-87
2021/05/11 14:04:22;;;;;;;38.45;5.45;;;14.70;99.90;;;;;;6128671;23;20026;-87
2021/05/11 14:06:49;;;;;;;20.95;4.07;;;14.90;99.90;;;;;;6151280;23;20025;-88
2021/05/11 14:09:17;;;;;;;32.20;5.15;;;15.00;99.90;;;;;;6149751;23;20021;-87
2021/05/11 14:11:45;;;;;;;25.92;5.63;;;15.00;99.90;;;;;;6150778;23;20025;-92
2021/05/11 14:14:13;;;;;;;22.85;4.82;;;15.00;99.90;;;;;;6150000;23;20013;-91
2021/05/11 14:16:43;;;;;;;20.02;3.80;;;15.00;99.90;;;;;;6150992;23;20056;-88
2021/05/11 14:19:10;;;;;;;21.88;4.80;;;14.90;99.90;;;;;;6149872;23;20529;-89
2021/05/11 14:21:38;;;;;;;22.38;4.50;;;14.90;99.90;;;;;;6152178;23;20378;-89
2021/05/11 14:24:05;;;;;;;24.48;4.45;;;15.00;99.90;;;;;;6150097;23;20487;-90
2021/05/11 14:26:32;;;;;;;22.27;4.63;;;15.10;99.90;;;;;;6150557;23;20093;-90
2021/05/11 14:28:59;;;;;;;17.85;4.88;;;15.10;99.90;;;;;;6149567;23;20036;-88
2021/05/11 14:31:27;;;;;;;15.63;4.10;;;15.00;99.90;;;;;;6149650;23;20025;-88
2021/05/11 14:33:55;;;;;;;25.50;3.95;;;15.00;99.90;;;;;;6150529;23;20021;-89
2021/05/11 14:36:22;;;;;;;19.55;3.92;;;15.10;99.90;;;;;;6152552;23;20465;-89
2021/05/11 14:38:49;;;;;;;20.13;4.95;;;15.20;99.90;;;;;;6152748;23;20370;-89
2021/05/11 14:41:17;;;;;;;17.30;3.60;;;15.30;99.90;;;;;;6152513;23;20461;-91
2021/05/11 14:43:44;;;;;;;20.38;4.38;;;15.40;99.90;;;;;;6152706;23;20024;-89
2021/05/11 14:46:11;;;;;;;21.30;4.18;;;15.40;99.90;;;;;;6152521;23;20465;-89
2021/05/11 14:48:39;;;;;;;21.73;4.72;;;15.40;99.90;;;;;;6152729;23;20032;-88
2021/05/11 14:51:08;;;;;;;24.50;4.60;;;15.30;99.90;;;;;;6153869;23;20480;-89
2021/05/11 14:53:35;;;;;;;;;;;15.30;99.90;;;;;;6153118;23;20025;-90
2021/05/11 14:56:03;;;;;;;25.33;4.93;;;15.30;99.90;;;;;;6153212;23;19964;-90
2021/05/11 14:58:32;;;;;;;30.02;5.25;;;15.20;99.90;;;;;;6152181;23;20017;-91
2021/05/11 15:00:59;;;;;;;22.58;4.85;;;15.10;99.90;;;;;;6152577;23;20021;-90
2021/05/11 15:03:27;;;;;;;19.05;4.57;;;15.10;99.90;;;;;;6151462;23;20096;-92
2021/05/11 15:06:14;;;;;;;26.73;4.57;;;15.10;99.90;;;;;;6152516;23;20065;-91
2021/05/11 15:08:41;;;;;;;26.23;5.20;;;14.90;99.90;;;;;;6154254;23;20010;-90
2021/05/11 15:11:08;;;;;;;26.67;5.03;;;14.90;99.90;;;;;;6153013;23;20029;-89
2021/05/11 15:13:35;;;;;;;25.55;4.85;;;14.90;99.90;;;;;;6152983;23;20017;-91
2021/05/11 15:16:06;;;;;;;25.30;4.82;;;14.90;99.90;;;;;;6151099;23;20019;-92
2021/05/11 15:18:35;;;;;;;19.00;4.53;;;14.90;99.90;;;;;;6154128;23;20020;-90
2021/05/11 15:21:02;;;;;;;21.10;4.60;;;14.90;99.90;;;;;;6152988;23;20022;-90
2021/05/11 15:23:30;;;;;;;27.75;5.68;;;14.80;99.90;;;;;;6156711;23;20013;-92
2021/05/11 15:25:57;;;;;;;27.52;5.05;;;14.80;99.90;;;;;;6153006;23;20017;-93
2021/05/11 15:28:24;;;;;;;21.20;5.40;;;14.80;99.90;;;;;;6157173;23;20065;-89
2021/05/11 15:30:51;;;;;;;28.20;5.85;;;14.90;99.90;;;;;;6163168;23;20021;-90
2021/05/11 15:33:18;;;;;;;25.85;4.53;;;15.00;99.90;;;;;;6160841;23;20013;-92
2021/05/11 15:35:44;;;;;;;20.30;3.90;;;15.00;99.90;;;;;;6159000;23;20031;-94
2021/05/11 15:38:12;;;;;;;19.58;4.35;;;14.90;99.90;;;;;;6154635;23;20014;-91
2021/05/11 15:40:41;;;;;;;18.85;4.60;;;14.80;99.90;;;;;;6154888;23;20025;-92
2021/05/11 15:43:08;;;;;;;;;;;14.80;99.90;;;;;;6156223;23;20036;-92
2021/05/11 15:45:37;;;;;;;17.55;4.20;;;14.70;99.90;;;;;;6155753;23;19916;-91
2021/05/11 15:48:08;;;;;;;25.33;4.75;;;14.60;99.90;;;;;;6155778;23;20385;-92
2021/05/11 15:50:38;;;;;;;22.02;3.55;;;14.60;99.90;;;;;;6156402;23;20024;-92
2021/05/11 15:53:07;;;;;;;18.67;3.95;;;14.50;99.90;;;;;;6155514;23;20021;-91
2021/05/11 15:55:38;;;;;;;22.60;4.20;;;14.60;99.90;;;;;;6156129;23;20080;-92
2021/05/11 15:58:07;;;;;;;15.85;3.40;;;14.60;99.90;;;;;;6155497;23;20022;-92
2021/05/11 16:00:35;;;;;;;;;;;14.70;99.90;;;;;;6157104;23;20018;-90
2021/05/11 16:03:04;;;;;;;20.37;4.33;;;14.70;99.90;;;;;;6157492;23;19917;-90
2021/05/11 16:05:37;;;;;;;24.20;4.30;;;14.80;99.90;;;;;;6157106;23;20022;-92
2021/05/11 16:08:09;;;;;;;19.77;4.70;;;14.90;99.90;;;;;;6155358;23;20022;-91
2021/05/11 16:10:37;;;;;;;24.15;4.72;;;15.00;99.90;;;;;;6155351;23;20018;-92
2021/05/11 16:13:05;;;;;;;16.48;3.50;;;15.10;99.90;;;;;;6156892;23;20085;-91
2021/05/11 16:15:32;;;;;;;16.85;3.30;;;15.20;99.90;;;;;;6155500;23;20013;-91
2021/05/11 16:17:59;;;;;;;20.58;4.65;;;15.30;99.90;;;;;;6155947;23;20021;-92
2021/05/11 16:20:27;;;;;;;16.70;3.40;;;15.30;99.90;;;;;;6156884;23;20080;-91
2021/05/11 16:22:55;;;;;;;22.20;3.90;;;15.50;99.90;;;;;;6153585;23;20024;-92
2021/05/11 16:25:23;;;;;;;15.40;3.72;;;15.50;99.90;;;;;;6155377;23;20036;-91
2021/05/11 16:27:50;;;;;;;20.08;3.90;;;15.40;99.90;;;;;;6155112;23;20029;-90
2021/05/11 16:30:22;;;;;;;16.00;3.50;;;15.40;99.90;;;;;;6147093;23;20021;-89
2021/05/11 16:32:57;;;;;;;16.60;3.47;;;15.40;99.90;;;;;;6152922;23;20021;-90
2021/05/11 16:35:26;;;;;;;15.00;2.63;;;15.30;99.90;;;;;;6166864;23;20409;-90
2021/05/11 16:37:53;;;;;;;20.20;2.70;;;15.20;99.90;;;;;;6155836;23;20017;-90
2021/05/11 16:40:20;;;;;;;13.10;2.78;;;15.10;99.90;;;;;;6142013;23;20319;-89
2021/05/11 16:42:48;;;;;;;15.20;2.78;;;15.10;99.90;;;;;;6155382;23;20021;-88
2021/05/11 16:45:17;;;;;;;15.77;3.58;;;15.20;99.90;;;;;;6154111;23;20077;-90
2021/05/11 16:47:57;;;;;;;19.17;3.88;;;15.20;99.90;;;;;;6154280;23;20065;-89
2021/05/11 16:50:33;;;;;;;12.38;2.95;;;15.20;99.90;;;;;;6155391;23;20029;-88
2021/05/11 16:53:03;;;;;;;15.73;3.25;;;15.10;99.90;;;;;;6155082;23;20022;-87
2021/05/11 16:55:31;;;;;;;18.50;2.83;;;15.20;99.90;;;;;;6166200;23;20073;-88
2021/05/11 16:57:58;;;;;;;16.90;3.10;;;15.20;99.90;;;;;;6153957;23;20076;-89
2021/05/11 17:00:27;;;;;;;22.02;3.08;;;15.30;99.90;;;;;;6153763;23;20017;-87
2021/05/11 17:02:54;;;;;;;21.42;3.40;;;15.40;99.90;;;;;;6155897;23;20128;-86
2021/05/11 17:05:21;;;;;;;15.38;3.50;;;15.50;99.90;;;;;;6154807;23;20022;-89
2021/05/11 17:07:50;;;;;;;13.30;3.28;;;15.40;99.90;;;;;;6156321;23;20025;-88
2021/05/11 17:10:18;;;;;;;16.20;3.40;;;15.30;99.90;;;;;;6155356;23;20020;-88
2021/05/11 17:12:46;;;;;;;12.60;3.30;;;15.30;99.90;;;;;;6154904;23;20377;-88
2021/05/11 17:15:15;;;;;;;23.10;3.47;;;15.20;99.90;;;;;;6156106;23;20021;-89
2021/05/11 17:17:45;;;;;;;13.55;2.80;;;15.10;99.90;;;;;;6155641;23;20028;-88
2021/05/11 17:20:14;;;;;;;16.45;3.45;;;15.10;99.90;;;;;;6155114;23;20313;-91
2021/05/11 17:22:41;;;;;;;14.45;3.10;;;15.10;99.90;;;;;;6152443;23;20037;-88
2021/05/11 17:25:09;;;;;;;19.50;3.15;;;15.00;99.90;;;;;;6152602;23;20120;-91
2021/05/11 17:27:36;;;;;;;24.50;3.47;;;14.90;99.90;;;;;;6153614;23;20021;-90
2021/05/11 17:30:05;;;;;;;19.23;2.97;;;14.80;99.90;;;;;;6153032;23;20354;-89
2021/05/11 17:32:32;;;;;;;19.08;3.45;;;14.80;99.90;;;;;;6151423;23;20381;-90
2021/05/11 17:35:00;;;;;;;19.45;3.58;;;14.60;99.90;;;;;;6152121;23;20021;-91
2021/05/11 17:37:27;;;;;;;19.38;3.90;;;14.50;99.90;;;;;;6151162;23;20469;-91
2021/05/11 17:39:54;;;;;;;21.08;3.80;;;14.30;99.90;;;;;;6152258;23;20022;-90
2021/05/11 17:42:21;;;;;;;16.88;3.33;;;14.20;99.90;;;;;;6151312;23;20456;-88
2021/05/11 17:44:48;;;;;;;14.73;3.30;;;14.10;99.90;;;;;;6151827;23;20406;-90
2021/05/11 17:47:16;;;;;;;16.33;3.20;;;14.20;99.90;;;;;;6151518;23;20021;-89
2021/05/11 17:49:43;;;;;;;17.10;3.33;;;14.30;99.90;;;;;;6152675;23;20076;-87
2021/05/11 17:52:10;;;;;;;18.17;3.03;;;14.30;99.90;;;;;;6152366;23;20013;-90
2021/05/11 17:54:37;;;;;;;17.85;3.25;;;14.30;99.90;;;;;;6156302;23;20017;-86
2021/05/11 17:57:05;;;;;;;18.73;3.65;;;14.20;99.90;;;;;;6153259;23;20010;-89
2021/05/11 17:59:32;;;;;;;15.93;3.20;;;14.00;99.90;;;;;;6157041;23;20025;-87
2021/05/11 18:01:59;;;;;;;19.67;2.90;;;13.90;99.90;;;;;;6153873;23;20013;-87
2021/05/11 18:04:26;;;;;;;16.92;3.13;;;13.70;99.90;;;;;;6149978;23;20469;-89
2021/05/11 18:06:55;;;;;;;14.75;3.15;;;13.60;99.90;;;;;;6151562;23;20022;-90
2021/05/11 18:09:22;;;;;;;8.20;2.05;;;13.50;99.90;;;;;;6151897;23;20021;-89
2021/05/11 18:11:50;;;;;;;8.40;1.65;;;13.40;99.90;;;;;;6151732;23;20025;-89
2021/05/11 18:14:18;;;;;;;8.00;1.67;;;13.70;99.90;;;;;;6151045;23;20056;-88
2021/05/11 18:16:46;;;;;;;7.07;1.52;;;14.30;99.90;;;;;;6150174;23;20068;-88
2021/05/11 18:19:14;;;;;;;7.05;1.92;;;15.10;99.90;;;;;;6150801;23;20013;-88
2021/05/11 18:21:41;;;;;;;10.35;2.05;;;15.70;99.90;;;;;;6151019;23;20021;-87
2021/05/11 18:24:08;;;;;;;7.90;1.95;;;16.50;99.90;;;;;;6150402;23;20108;-88
2021/05/11 18:26:35;;;;;;;15.52;2.45;;;17.00;99.90;;;;;;6152573;23;20603;-88
2021/05/11 18:29:04;;;;;;;11.13;2.30;;;17.40;99.90;;;;;;6150276;23;20021;-88
2021/05/11 18:31:31;;;;;;;11.05;2.38;;;17.40;99.90;;;;;;6148877;23;20803;-87
2021/05/11 18:33:58;;;;;;;11.00;2.38;;;17.30;99.90;;;;;;6146745;23;20029;-87
2021/05/11 18:39:00;;;;;;;21.05;3.25;;;16.60;99.90;;;;;;6149820;23;20461;-86
2021/05/11 18:41:27;;;;;;;18.80;3.72;;;16.20;99.90;;;;;;6147515;23;20036;-86
2021/05/11 18:43:54;;;;;;;16.13;3.45;;;15.80;99.90;;;;;;6150249;23;20330;-86
2021/05/11 18:46:21;;;;;;;20.85;3.83;;;15.30;99.90;;;;;;6149651;23;20072;-88
2021/05/11 18:48:48;;;;;;;25.63;3.70;;;15.00;99.90;;;;;;6151559;23;20499;-87
2021/05/11 18:51:15;;;;;;;20.27;3.95;;;14.60;99.90;;;;;;6150530;23;20036;-87
2021/05/11 18:53:41;;;;;;;17.67;2.92;;;14.50;99.90;;;;;;6151211;23;21059;-86
2021/05/11 18:56:09;;;;;;;18.83;3.38;;;14.40;99.90;;;;;;6152784;23;20022;-88
2021/05/11 18:58:36;;;;;;;18.15;3.58;;;14.30;99.90;;;;;;6151990;23;20014;-87
2021/05/11 19:01:02;;;;;;;26.90;4.63;;;14.30;99.90;;;;;;6151246;23;20409;-87
2021/05/11 19:03:32;;;;;;;20.80;3.70;;;14.20;99.90;;;;;;6150681;23;20013;-87
2021/05/11 19:05:59;;;;;;;22.20;3.92;;;14.10;99.90;;;;;;6151140;23;20018;-87
2021/05/11 19:08:26;;;;;;;19.63;3.55;;;13.90;99.90;;;;;;6149718;23;20034;-85
2021/05/11 19:10:53;;;;;;;17.88;3.80;;;13.80;99.90;;;;;;6150702;23;20025;-86
2021/05/11 19:13:20;;;;;;;18.83;4.10;;;13.70;99.90;;;;;;6149350;23;20036;-86
2021/05/11 19:15:46;;;;;;;21.80;3.85;;;13.60;99.90;;;;;;6150225;23;20331;-86
2021/05/11 19:18:13;;;;;;;23.42;4.05;;;13.50;99.90;;;;;;6149694;23;20025;-87
2021/05/11 19:20:40;;;;;;;23.65;3.35;;;13.30;99.90;;;;;;6152534;23;20110;-86
2021/05/11 19:23:08;;;;;;;21.42;3.38;;;13.20;99.90;;;;;;6151325;23;20080;-86
2021/05/11 19:25:35;;;;;;;18.55;3.45;;;13.00;99.90;;;;;;6153186;23;20013;-85
2021/05/11 19:28:04;;;;;;;20.52;3.60;;;13.00;99.90;;;;;;6152683;23;20018;-87
2021/05/11 19:30:31;;;;;;;17.27;3.95;;;12.90;99.90;;;;;;6149988;23;20021;-88
2021/05/11 19:33:04;;;;;;;18.35;2.95;;;12.80;99.90;;;;;;6150909;23;20021;-87
2021/05/11 19:35:32;;;;;;;26.63;3.85;;;12.70;99.90;;;;;;6148997;23;20021;-86
2021/05/11 19:37:59;;;;;;;19.97;3.13;;;12.60;99.90;;;;;;6150661;23;20026;-86
2021/05/11 19:40:26;;;;;;;16.95;3.45;;;12.50;99.90;;;;;;6150572;23;20245;-87
2021/05/11 19:42:53;;;;;;;20.75;3.35;;;12.40;99.90;;;;;;6132483;23;20053;-88
2021/05/11 19:45:20;;;;;;;24.20;3.47;;;12.40;99.90;;;;;;6135451;23;20017;-87
2021/05/11 19:47:47;;;;;;;17.35;3.63;;;12.30;99.90;;;;;;6152637;23;20021;-86
2021/05/11 19:50:14;;;;;;;19.70;3.08;;;12.20;99.90;;;;;;6150442;23;20017;-87
2021/05/11 19:52:42;;;;;;;24.42;3.58;;;12.20;99.90;;;;;;6151543;23;20053;-88
2021/05/11 19:55:14;;;;;;;16.58;3.22;;;12.10;99.90;;;;;;6149655;23;20017;-86
2021/05/11 19:57:41;;;;;;;17.02;3.20;;;12.00;99.90;;;;;;6150961;23;20025;-86
2021/05/11 20:00:08;;;;;;;22.20;4.00;;;12.00;99.90;;;;;;6151284;23;20068;-85
2021/05/11 20:02:36;;;;;;;20.55;4.00;;;11.90;99.90;;;;;;6151578;23;20476;-86
2021/05/11 20:05:03;;;;;;;19.77;3.58;;;11.90;99.90;;;;;;6153048;23;20021;-87
2021/05/11 20:07:30;;;;;;;23.38;3.97;;;11.80;99.90;;;;;;6151378;23;20018;-86
2021/05/11 20:09:57;;;;;;;23.45;4.13;;;11.80;99.90;;;;;;6151554;23;20399;-87
2021/05/11 20:12:24;;;;;;;19.83;3.55;;;11.70;99.90;;;;;;6152135;23;20029;-86
2021/05/11 20:14:52;;;;;;;16.75;3.22;;;11.70;99.90;;;;;;6149034;23;20035;-85
2021/05/11 20:17:18;;;;;;;21.13;3.25;;;11.60;99.90;;;;;;6148387;23;20013;-85
2021/05/11 20:19:46;;;;;;;14.27;3.15;;;11.60;99.90;;;;;;6150902;23;20013;-85
2021/05/11 20:22:13;;;;;;;21.83;3.72;;;11.50;99.90;;;;;;6148694;23;20473;-85
2021/05/11 20:24:40;;;;;;;24.92;3.47;;;11.50;99.90;;;;;;6150860;23;20076;-85
2021/05/11 20:27:07;;;;;;;21.58;3.00;;;11.50;99.90;;;;;;6150318;23;20024;-84
2021/05/11 20:29:34;;;;;;;20.75;4.95;;;11.50;99.90;;;;;;6152644;23;20014;-85
2021/05/11 20:32:01;;;;;;;18.98;4.32;;;11.50;99.90;;;;;;6151071;23;20025;-85
2021/05/11 20:34:28;;;;;;;23.70;3.20;;;11.50;99.90;;;;;;6150247;23;20041;-85
2021/05/11 20:36:55;;;;;;;20.80;3.67;;;11.40;99.90;;;;;;6152664;23;20013;-85
2021/05/11 20:39:22;;;;;;;15.68;3.65;;;11.40;99.90;;;;;;6150389;23;20330;-85
2021/05/11 20:41:50;;;;;;;20.90;3.58;;;11.40;99.90;;;;;;6152719;23;20033;-85
2021/05/11 20:44:18;;;;;;;25.90;3.50;;;11.40;99.90;;;;;;6152162;23;20076;-85
2021/05/11 20:46:46;;;;;;;20.27;4.10;;;11.40;99.90;;;;;;6151321;23;20476;-86
2021/05/11 20:49:14;;;;;;;20.40;3.33;;;11.30;99.90;;;;;;6150708;23;20014;-87
2021/05/11 20:51:41;;;;;;;17.23;3.33;;;11.30;99.90;;;;;;6150668;23;20073;-86
2021/05/11 20:54:08;;;;;;;22.02;3.40;;;11.30;99.90;;;;;;6150425;23;20021;-87
2021/05/11 20:56:35;;;;;;;15.52;3.58;;;11.20;99.90;;;;;;6150941;23;20018;-86
2021/05/11 20:59:03;;;;;;;21.48;2.70;;;11.20;99.90;;;;;;6152763;23;20018;-87
2021/05/11 21:01:30;;;;;;;15.43;2.63;;;11.10;99.90;;;;;;6149844;23;20017;-86
2021/05/11 21:03:59;;;;;;;11.52;2.30;;;11.10;99.90;;;;;;6152693;23;20332;-87
2021/05/11 21:06:26;;;;;;;15.23;2.28;;;11.10;99.90;;;;;;6151740;23;20017;-87
2021/05/11 21:08:54;;;;;;;15.25;2.80;;;11.00;99.90;;;;;;6153024;23;20088;-86
2021/05/11 21:11:22;;;;;;;13.40;2.55;;;11.00;99.90;;;;;;6152534;23;20022;-85
2021/05/11 21:13:49;;;;;;;14.02;2.53;;;11.00;99.90;;;;;;6155029;23;20473;-85
2021/05/11 21:16:16;;;;;;;24.27;2.33;;;10.90;99.90;;;;;;6152193;23;20362;-85
2021/05/11 21:18:43;;;;;;;11.90;2.20;;;10.90;99.90;;;;;;6152883;23;20080;-85
2021/05/11 21:21:10;;;;;;;20.08;3.00;;;10.90;99.90;;;;;;6152743;23;20021;-86
2021/05/11 21:23:38;;;;;;;23.08;2.63;;;10.80;99.90;;;;;;6152850;23;20085;-85
2021/05/11 21:26:05;;;;;;;13.18;2.03;;;10.80;99.90;;;;;;6154454;23;20025;-85
2021/05/11 21:28:32;;;;;;;12.48;2.10;;;10.80;99.90;;;;;;6154728;23;20392;-84
2021/05/11 21:30:58;;;;;;;13.82;2.28;;;10.70;99.90;;;;;;6154486;23;20018;-85
2021/05/11 21:33:26;;;;;;;18.77;2.55;;;10.70;99.90;;;;;;6152584;23;20014;-85
2021/05/11 21:35:54;;;;;;;18.30;2.90;;;10.70;99.90;;;;;;6152962;23;20068;-85
2021/05/11 21:38:21;;;;;;;13.40;2.25;;;10.70;99.90;;;;;;6152690;23;20617;-84
2021/05/11 21:40:49;;;;;;;14.52;2.17;;;10.60;99.90;;;;;;6155244;23;20088;-85
2021/05/11 21:43:16;;;;;;;16.85;2.38;;;10.60;99.90;;;;;;6153865;23;20409;-85
2021/05/11 21:45:43;;;;;;;11.57;2.15;;;10.60;99.90;;;;;;6153383;23;20029;-85
2021/05/11 21:48:10;;;;;;;15.93;2.28;;;10.60;99.90;;;;;;6152552;23;20014;-85
2021/05/11 21:50:37;;;;;;;10.13;1.88;;;10.60;99.90;;;;;;6155105;23;20018;-85
2021/05/11 21:53:08;;;;;;;16.15;2.65;;;10.60;99.90;;;;;;6154043;23;20017;-86
2021/05/11 21:55:36;;;;;;;12.35;3.35;;;10.60;99.90;;;;;;6152998;23;20528;-85
2021/05/11 21:58:04;;;;;;;19.58;2.90;;;10.60;99.90;;;;;;6152861;23;20024;-85
2021/05/11 22:00:35;;;;;;;11.73;2.92;;;10.50;99.90;;;;;;6182119;23;20017;-85
2021/05/11 22:03:03;;;;;;;11.10;3.38;;;10.50;99.90;;;;;;6182697;23;20017;-86
2021/05/11 22:05:30;;;;;;;13.93;2.92;;;10.50;99.90;;;;;;6182389;23;20459;-84
2021/05/11 22:07:57;;;;;;;12.88;2.78;;;10.50;99.90;;;;;;6184148;23;20021;-85
2021/05/11 22:10:32;;;;;;;20.85;3.28;;;10.50;99.90;;;;;;6182225;23;20071;-85
2021/05/11 22:13:01;;;;;;;17.48;3.75;;;10.50;99.90;;;;;;6182855;23;20013;-85
2021/05/11 22:15:28;;;;;;;13.80;2.92;;;10.40;99.90;;;;;;6182337;23;20020;-85
2021/05/11 22:17:55;;;;;;;14.20;3.15;;;10.40;99.90;;;;;;6182294;23;20318;-85
2021/05/11 22:20:23;;;;;;;14.13;3.30;;;10.40;99.90;;;;;;6182121;23;20025;-85
2021/05/11 22:22:51;;;;;;;14.55;2.95;;;10.40;99.90;;;;;;6182661;23;20399;-85
2021/05/11 22:25:19;;;;;;;16.38;2.60;;;10.40;99.90;;;;;;6182280;23;20013;-85
2021/05/11 22:27:46;;;;;;;12.68;2.38;;;10.30;99.90;;;;;;6184097;23;20028;-85
2021/05/11 22:30:14;;;;;;;18.17;2.80;;;10.30;99.90;;;;;;6182021;23;20024;-85
2021/05/11 22:32:41;;;;;;;17.27;2.95;;;10.30;99.90;;;;;;6182254;23;20493;-85
2021/05/11 22:35:10;;;;;;;11.43;2.70;;;10.20;99.90;;;;;;6182229;23;20527;-85
2021/05/11 22:37:37;;;;;;;9.23;2.63;;;10.20;99.90;;;;;;6182581;23;20067;-85
2021/05/11 22:40:07;;;;;;;18.73;2.53;;;10.20;99.90;;;;;;6183807;23;20020;-84
2021/05/11 22:42:33;;;;;;;14.45;2.40;;;10.20;99.90;;;;;;6182112;23;20014;-85
2021/05/11 22:45:00;;;;;;;18.30;2.72;;;10.10;99.90;;;;;;6182979;23;20064;-84
2021/05/11 22:47:27;;;;;;;13.40;2.13;;;10.10;99.90;;;;;;6183640;23;20021;-85
2021/05/11 22:49:54;;;;;;;17.00;2.42;;;10.10;99.90;;;;;;6182829;23;20017;-85
2021/05/11 22:52:21;;;;;;;15.23;2.92;;;10.00;99.90;;;;;;6182410;23;20017;-85
2021/05/11 22:54:49;;;;;;;18.65;2.28;;;10.00;99.90;;;;;;6182751;23;20017;-85
2021/05/11 22:57:16;;;;;;;11.68;2.78;;;10.00;99.90;;;;;;6184004;23;20028;-85
2021/05/11 22:59:43;;;;;;;13.10;2.75;;;10.00;99.90;;;;;;6184639;23;20035;-86
